Chilik Southeast Airfield

Jump to: basic info | weather | comments

Related pages: nearby airports | nearby navaids

Basic information (top)

Location: lon 43.223598, lat 78.732399, elev 4,497 ft / 1,371 m msl
Status: small_airport

Weather (top)

Current conditions for Almaty Airport 74nm (138km) W (rec'd 2015/04/18 23:00Z):

UAAA 182300Z VRB01MPS 9999 SCT100 BKN200 09/04 Q1018 R88/65D NOSIG

Airport forecast for Almaty Airport 74nm (138km) W (rec'd 2015/04/18 18:18Z):

TAF TAF UAAA 181700Z 1818/1918 26005MPS 9999 BKN030CB BKN100 TX18/1908Z TN08/1901Z 
      TEMPO 1818/1903 VRB12MPS 3000 -TSRA SQ 
      BECMG 1903/1904 04006MPS SCT050CB BKN100 PROB40 
      TEMPO 1906/1914 TS 
      TEMPO 1914/1918 3000 BR FU

Latest comments (top)

Spelling: OK oK its Kazakhstan♄, so you have a ... [read]

Airfield: I came across this airfield on Google, ... [read]

More... (top)

See also NOTAMs and nearby airports and navaids, or visit the Chilik Southeast Airfield page at the main OurAirports website..